• pl
  • eng

Awiacja
WIADOMOŚCI
ostatnia aktualizacja: 26.09.2019 09:57
Uprzejmie informujemy, że od dnia 2.09.2019 jest dostępna w formie testowej prognoza GAFOR. Prosimy o przesyłanie na adres gafor@imgw.pl uwag i sugestii, które przyczynią się do rozwoju produktu.
Kliknij na pogrubioną czerwoną nazwę, aby odkodować depeszę. 07:31 22.01.2020
  • WIND
  • SIGNIFICANT EURO
  • SIGNIFICANT
  • SIGMET
  • AIRMET
  • TAF FC
  • TAF FT
  • METAR GG30
  • METAR GG00


METAR EPBY 220630Z 26017KT 9999 -DZ OVC005 04/02 Q1023=

METAR EPGD 220630Z 31019G30KT 9999 BKN016 05/02 Q1019 =

METAR EPKK 220630Z 22012KT CAVOK M02/M04 Q1027 =

METAR EPKT 220630Z 23011KT 5000 BR NSC M03/M05 Q1027 =

METAR EPLB 220630Z 27016KT 3200 -RASN BR FEW006 OVC009 00/00 Q1022 =

METAR EPLL 220630Z 26015KT 3200 DZ BR OVC003 M00/M01 Q1025 =

METAR EPMO 220630Z 26018KT 4500 -RA BR OVC007 02/02 Q1021 =

METAR EPPO 220630Z 27012KT 2400 -DZ BR OVC003 02/02 Q1027 =

METAR EPRA 220630Z NIL=

METAR EPRZ 220630Z 22015KT CAVOK M01/M05 Q1025 =

METAR EPSC 220630Z 28014G25KT 9999 OVC004 05/04 Q1026 =

METAR EPSY 220630Z 29011G22KT 240V330 9999 -RA SCT009 BKN013 OVC017
04/03 Q1018=

METAR EPWA 220630Z 27012KT 240V300 8000 BKN006 02/01 Q1022 NOSIG=

METAR EPWR 220630Z 31012KT CAVOK M01/M03 Q1029 =

METAR EPZG 220630Z 24011KT 1600 -DZ BR OVC003 01/01 Q1029 REDZ =
Awiacja.imgw.pl jest pogodowym serwisem informacyjnym
Instytutu Meteorologii i Gospodarki Wodnej Państwowego Instytutu Badawczego.
Copyright IMGW PIB 2009-2019© Wszelkie prawa zastrzeżone.